sensor_id;sensor_type;location;lat;lon;timestamp;pressure;altitude;pressure_sealevel;temperature;humidity
1401;BME280;46518;48.842;8.926;2023-08-24T00:01:10;97322.41;;;22.28;62.56
1401;BME280;46518;48.842;8.926;2023-08-24T00:03:39;97313.25;;;22.03;63.39
1401;BME280;46518;48.842;8.926;2023-08-24T00:06:08;97316.41;;;22.05;63.68
1401;BME280;46518;48.842;8.926;2023-08-24T00:08:36;97311.34;;;21.94;64.02
1401;BME280;46518;48.842;8.926;2023-08-24T00:11:05;97311.47;;;21.81;64.39
1401;BME280;46518;48.842;8.926;2023-08-24T00:13:34;97305.66;;;21.87;64.29
1401;BME280;46518;48.842;8.926;2023-08-24T00:16:03;97301.56;;;21.98;63.98
1401;BME280;46518;48.842;8.926;2023-08-24T00:18:33;97295.13;;;22.00;63.30
1401;BME280;46518;48.842;8.926;2023-08-24T00:21:01;97292.75;;;22.15;63.53
1401;BME280;46518;48.842;8.926;2023-08-24T00:23:29;97285.47;;;22.16;63.67
1401;BME280;46518;48.842;8.926;2023-08-24T00:25:57;97284.22;;;22.05;62.88
1401;BME280;46518;48.842;8.926;2023-08-24T00:28:26;97287.69;;;21.96;62.35
1401;BME280;46518;48.842;8.926;2023-08-24T00:30:54;97287.56;;;22.02;62.38
1401;BME280;46518;48.842;8.926;2023-08-24T00:33:22;97305.22;;;22.20;62.30
1401;BME280;46518;48.842;8.926;2023-08-24T00:35:59;97288.63;;;22.01;63.65
1401;BME280;46518;48.842;8.926;2023-08-24T00:38:27;97288.50;;;21.97;63.24
1401;BME280;46518;48.842;8.926;2023-08-24T00:40:57;97283.28;;;21.83;64.28
1401;BME280;46518;48.842;8.926;2023-08-24T00:43:26;97278.09;;;21.87;64.10
1401;BME280;46518;48.842;8.926;2023-08-24T00:45:56;97282.97;;;21.85;64.41
1401;BME280;46518;48.842;8.926;2023-08-24T00:48:27;97267.31;;;21.61;65.71
1401;BME280;46518;48.842;8.926;2023-08-24T00:50:59;97271.28;;;21.72;65.45
1401;BME280;46518;48.842;8.926;2023-08-24T00:53:30;97258.63;;;21.46;66.43
1401;BME280;46518;48.842;8.926;2023-08-24T00:55:59;97253.91;;;21.43;67.05
1401;BME280;46518;48.842;8.926;2023-08-24T00:58:27;97254.56;;;21.58;66.44
1401;BME280;46518;48.842;8.926;2023-08-24T01:00:56;97248.91;;;21.59;66.18
1401;BME280;46518;48.842;8.926;2023-08-24T01:03:26;97245.75;;;21.66;65.99
1401;BME280;46518;48.842;8.926;2023-08-24T01:05:54;97247.34;;;21.67;65.78
1401;BME280;46518;48.842;8.926;2023-08-24T01:08:24;97249.53;;;21.65;65.56
1401;BME280;46518;48.842;8.926;2023-08-24T01:10:59;97256.78;;;21.64;65.36
1401;BME280;46518;48.842;8.926;2023-08-24T01:13:33;97258.06;;;21.67;65.63
1401;BME280;46518;48.842;8.926;2023-08-24T01:16:13;97250.47;;;21.69;65.48
1401;BME280;46518;48.842;8.926;2023-08-24T01:18:44;97247.50;;;21.79;65.87
1401;BME280;46518;48.842;8.926;2023-08-24T01:21:14;97244.34;;;21.77;66.02
1401;BME280;46518;48.842;8.926;2023-08-24T01:23:49;97243.56;;;21.85;66.02
1401;BME280;46518;48.842;8.926;2023-08-24T01:26:23;97245.59;;;21.88;65.68
1401;BME280;46518;48.842;8.926;2023-08-24T01:28:53;97242.63;;;21.90;65.61
1401;BME280;46518;48.842;8.926;2023-08-24T01:31:24;97242.28;;;21.91;65.52
1401;BME280;46518;48.842;8.926;2023-08-24T01:33:52;97241.69;;;21.94;65.37
1401;BME280;46518;48.842;8.926;2023-08-24T01:36:21;97247.66;;;22.00;65.37
1401;BME280;46518;48.842;8.926;2023-08-24T01:39:02;97253.00;;;22.00;65.34
1401;BME280;46518;48.842;8.926;2023-08-24T01:41:36;97250.00;;;21.93;65.11
1401;BME280;46518;48.842;8.926;2023-08-24T01:44:06;97256.00;;;21.98;64.88
1401;BME280;46518;48.842;8.926;2023-08-24T01:46:36;97260.41;;;21.86;64.80
1401;BME280;46518;48.842;8.926;2023-08-24T01:49:06;97260.91;;;21.79;65.22
1401;BME280;46518;48.842;8.926;2023-08-24T01:51:35;97263.22;;;21.63;65.49
1401;BME280;46518;48.842;8.926;2023-08-24T01:54:05;97258.84;;;21.67;65.56
1401;BME280;46518;48.842;8.926;2023-08-24T01:56:33;97261.53;;;21.67;65.54
1401;BME280;46518;48.842;8.926;2023-08-24T01:59:02;97265.75;;;21.68;64.99
1401;BME280;46518;48.842;8.926;2023-08-24T02:01:31;97265.28;;;21.58;65.33
1401;BME280;46518;48.842;8.926;2023-08-24T02:03:59;97261.66;;;21.71;65.25
1401;BME280;46518;48.842;8.926;2023-08-24T02:06:27;97260.09;;;21.79;65.01
1401;BME280;46518;48.842;8.926;2023-08-24T02:08:56;97263.56;;;21.62;65.65
1401;BME280;46518;48.842;8.926;2023-08-24T02:11:24;97257.72;;;21.60;65.21
1401;BME280;46518;48.842;8.926;2023-08-24T02:13:52;97257.69;;;21.51;66.24
1401;BME280;46518;48.842;8.926;2023-08-24T02:16:21;97249.19;;;21.49;65.95
1401;BME280;46518;48.842;8.926;2023-08-24T02:18:50;97241.78;;;21.46;65.96
1401;BME280;46518;48.842;8.926;2023-08-24T02:21:19;97241.63;;;21.42;66.18
1401;BME280;46518;48.842;8.926;2023-08-24T02:23:47;97246.81;;;21.39;66.61
1401;BME280;46518;48.842;8.926;2023-08-24T02:26:16;97246.50;;;21.40;66.72
1401;BME280;46518;48.842;8.926;2023-08-24T02:28:46;97246.28;;;21.37;66.57
1401;BME280;46518;48.842;8.926;2023-08-24T02:31:14;97246.50;;;21.40;66.68
1401;BME280;46518;48.842;8.926;2023-08-24T02:33:44;97246.22;;;21.50;66.16
1401;BME280;46518;48.842;8.926;2023-08-24T02:36:13;97248.25;;;21.53;66.13
1401;BME280;46518;48.842;8.926;2023-08-24T02:38:42;97246.13;;;21.33;67.31
1401;BME280;46518;48.842;8.926;2023-08-24T02:41:10;97236.41;;;21.37;67.60
1401;BME280;46518;48.842;8.926;2023-08-24T02:43:40;97232.91;;;21.28;67.88
1401;BME280;46518;48.842;8.926;2023-08-24T02:46:12;97236.41;;;21.37;67.45
1401;BME280;46518;48.842;8.926;2023-08-24T02:48:40;97235.44;;;21.33;67.35
1401;BME280;46518;48.842;8.926;2023-08-24T02:51:10;97224.16;;;20.96;68.37
1401;BME280;46518;48.842;8.926;2023-08-24T02:53:38;97242.16;;;21.13;68.43
1401;BME280;46518;48.842;8.926;2023-08-24T02:56:07;97242.78;;;21.19;68.20
1401;BME280;46518;48.842;8.926;2023-08-24T02:58:35;97232.38;;;21.08;68.67
1401;BME280;46518;48.842;8.926;2023-08-24T03:01:05;97228.81;;;21.22;68.36
1401;BME280;46518;48.842;8.926;2023-08-24T03:03:34;97221.38;;;21.10;69.15
1401;BME280;46518;48.842;8.926;2023-08-24T03:06:05;97230.34;;;21.14;68.84
1401;BME280;46518;48.842;8.926;2023-08-24T03:08:37;97222.59;;;20.95;69.47
1401;BME280;46518;48.842;8.926;2023-08-24T03:11:06;97216.13;;;20.96;69.92
1401;BME280;46518;48.842;8.926;2023-08-24T03:13:35;97224.34;;;21.00;69.23
1401;BME280;46518;48.842;8.926;2023-08-24T03:16:04;97224.28;;;20.91;70.14
1401;BME280;46518;48.842;8.926;2023-08-24T03:18:33;97226.22;;;20.99;69.80
1401;BME280;46518;48.842;8.926;2023-08-24T03:21:03;97223.25;;;21.09;69.30
1401;BME280;46518;48.842;8.926;2023-08-24T03:23:33;97215.09;;;21.15;69.36
1401;BME280;46518;48.842;8.926;2023-08-24T03:26:03;97211.94;;;21.21;69.11
1401;BME280;46518;48.842;8.926;2023-08-24T03:28:32;97199.03;;;21.23;68.92
1401;BME280;46518;48.842;8.926;2023-08-24T03:31:00;97193.19;;;21.21;69.08
1401;BME280;46518;48.842;8.926;2023-08-24T03:33:29;97194.94;;;21.26;69.23
1401;BME280;46518;48.842;8.926;2023-08-24T03:35:57;97191.63;;;21.29;69.32
1401;BME280;46518;48.842;8.926;2023-08-24T03:38:26;97193.22;;;21.30;69.25
1401;BME280;46518;48.842;8.926;2023-08-24T03:40:59;97186.63;;;21.27;69.14
1401;BME280;46518;48.842;8.926;2023-08-24T03:43:31;97185.03;;;21.26;69.00
1401;BME280;46518;48.842;8.926;2023-08-24T03:45:59;97181.09;;;21.24;69.50
1401;BME280;46518;48.842;8.926;2023-08-24T03:48:28;97176.69;;;21.28;69.21
1401;BME280;46518;48.842;8.926;2023-08-24T03:50:56;97174.00;;;21.19;70.10
1401;BME280;46518;48.842;8.926;2023-08-24T03:53:25;97170.03;;;21.17;70.50
1401;BME280;46518;48.842;8.926;2023-08-24T03:55:54;97168.97;;;21.18;70.81
1401;BME280;46518;48.842;8.926;2023-08-24T03:58:22;97170.03;;;21.08;70.79
1401;BME280;46518;48.842;8.926;2023-08-24T04:00:53;97158.38;;;21.04;72.10
1401;BME280;46518;48.842;8.926;2023-08-24T04:03:24;97160.59;;;21.10;71.90
1401;BME280;46518;48.842;8.926;2023-08-24T04:05:52;97167.53;;;21.11;71.30
1401;BME280;46518;48.842;8.926;2023-08-24T04:08:20;97156.66;;;21.17;71.45
1401;BME280;46518;48.842;8.926;2023-08-24T04:10:49;97163.00;;;21.29;71.05
1401;BME280;46518;48.842;8.926;2023-08-24T04:13:17;97156.38;;;21.27;70.66
1401;BME280;46518;48.842;8.926;2023-08-24T04:15:45;97156.66;;;21.17;71.64
1401;BME280;46518;48.842;8.926;2023-08-24T04:18:15;97147.53;;;21.26;71.40
1401;BME280;46518;48.842;8.926;2023-08-24T04:20:43;97146.44;;;21.36;70.91
1401;BME280;46518;48.842;8.926;2023-08-24T04:23:13;97146.94;;;21.38;70.82
1401;BME280;46518;48.842;8.926;2023-08-24T04:25:41;97139.88;;;21.42;70.57
1401;BME280;46518;48.842;8.926;2023-08-24T04:28:10;97147.22;;;21.37;70.43
1401;BME280;46518;48.842;8.926;2023-08-24T04:30:38;97149.44;;;21.26;70.88
1401;BME280;46518;48.842;8.926;2023-08-24T04:33:06;97140.16;;;21.15;71.38
1401;BME280;46518;48.842;8.926;2023-08-24T04:35:36;97147.41;;;21.23;71.58
1401;BME280;46518;48.842;8.926;2023-08-24T04:38:04;97141.25;;;21.22;71.55
1401;BME280;46518;48.842;8.926;2023-08-24T04:40:54;97154.50;;;21.27;70.92
1401;BME280;46518;48.842;8.926;2023-08-24T04:43:23;97152.44;;;21.24;71.25
1401;BME280;46518;48.842;8.926;2023-08-24T04:45:52;97139.69;;;21.30;71.00
1401;BME280;46518;48.842;8.926;2023-08-24T04:48:21;97149.78;;;21.24;71.35
1401;BME280;46518;48.842;8.926;2023-08-24T04:50:51;97148.78;;;21.11;71.78
1401;BME280;46518;48.842;8.926;2023-08-24T04:53:20;97150.38;;;21.21;71.58
1401;BME280;46518;48.842;8.926;2023-08-24T04:55:49;97144.41;;;21.24;71.83
1401;BME280;46518;48.842;8.926;2023-08-24T04:58:17;97139.34;;;21.31;71.55
1401;BME280;46518;48.842;8.926;2023-08-24T05:00:45;97143.44;;;21.29;71.60
1401;BME280;46518;48.842;8.926;2023-08-24T05:03:14;97136.53;;;21.37;71.42
1401;BME280;46518;48.842;8.926;2023-08-24T05:05:44;97130.25;;;21.41;71.59
1401;BME280;46518;48.842;8.926;2023-08-24T05:08:14;97126.50;;;21.42;71.12
1401;BME280;46518;48.842;8.926;2023-08-24T05:10:42;97139.72;;;21.47;70.76
1401;BME280;46518;48.842;8.926;2023-08-24T05:13:10;97129.16;;;21.51;70.22
1401;BME280;46518;48.842;8.926;2023-08-24T05:15:39;97126.97;;;21.53;70.30
1401;BME280;46518;48.842;8.926;2023-08-24T05:18:07;97126.03;;;21.58;70.10
1401;BME280;46518;48.842;8.926;2023-08-24T05:20:35;97121.13;;;21.60;70.45
1401;BME280;46518;48.842;8.926;2023-08-24T05:23:03;97120.34;;;21.59;70.66
1401;BME280;46518;48.842;8.926;2023-08-24T05:25:33;97123.78;;;21.68;70.85
1401;BME280;46518;48.842;8.926;2023-08-24T05:28:02;97114.66;;;21.78;71.04
1401;BME280;46518;48.842;8.926;2023-08-24T05:30:30;97114.16;;;21.85;70.64
1401;BME280;46518;48.842;8.926;2023-08-24T05:32:58;97105.78;;;21.86;70.58
1401;BME280;46518;48.842;8.926;2023-08-24T05:35:26;97110.81;;;21.96;70.41
1401;BME280;46518;48.842;8.926;2023-08-24T05:37:55;97099.00;;;21.97;70.23
1401;BME280;46518;48.842;8.926;2023-08-24T05:40:23;97091.25;;;22.05;69.89
1401;BME280;46518;48.842;8.926;2023-08-24T05:42:53;97099.13;;;22.10;69.40
1401;BME280;46518;48.842;8.926;2023-08-24T05:45:21;97100.97;;;22.18;68.97
1401;BME280;46518;48.842;8.926;2023-08-24T05:47:52;97107.78;;;22.24;68.53
1401;BME280;46518;48.842;8.926;2023-08-24T05:50:21;97108.88;;;22.23;68.22
1401;BME280;46518;48.842;8.926;2023-08-24T05:52:49;97106.63;;;22.34;68.40
1401;BME280;46518;48.842;8.926;2023-08-24T05:55:18;97105.66;;;22.38;68.80
1401;BME280;46518;48.842;8.926;2023-08-24T05:57:46;97108.03;;;22.40;69.20
1401;BME280;46518;48.842;8.926;2023-08-24T06:00:17;97106.59;;;22.43;69.52
1401;BME280;46518;48.842;8.926;2023-08-24T06:02:46;97119.22;;;22.42;69.04
1401;BME280;46518;48.842;8.926;2023-08-24T06:05:14;97121.38;;;22.49;68.52
1401;BME280;46518;48.842;8.926;2023-08-24T06:07:44;97127.56;;;22.49;68.79
1401;BME280;46518;48.842;8.926;2023-08-24T06:10:12;97119.66;;;22.53;68.90
1401;BME280;46518;48.842;8.926;2023-08-24T06:12:41;97126.25;;;22.55;68.93
1401;BME280;46518;48.842;8.926;2023-08-24T06:15:09;97124.19;;;22.61;68.76
1401;BME280;46518;48.842;8.926;2023-08-24T06:17:41;97124.34;;;22.65;68.29
1401;BME280;46518;48.842;8.926;2023-08-24T06:20:11;97126.69;;;22.66;68.66
1401;BME280;46518;48.842;8.926;2023-08-24T06:22:39;97136.97;;;22.64;68.69
1401;BME280;46518;48.842;8.926;2023-08-24T06:25:08;97145.19;;;22.59;67.63
1401;BME280;46518;48.842;8.926;2023-08-24T06:27:37;97155.63;;;22.52;67.73
1401;BME280;46518;48.842;8.926;2023-08-24T06:30:06;97157.66;;;22.55;68.18
1401;BME280;46518;48.842;8.926;2023-08-24T06:32:35;97175.38;;;22.38;69.72
1401;BME280;46518;48.842;8.926;2023-08-24T06:35:06;97183.47;;;22.21;71.07
1401;BME280;46518;48.842;8.926;2023-08-24T06:37:34;97189.50;;;21.92;72.20
1401;BME280;46518;48.842;8.926;2023-08-24T06:40:03;97209.19;;;21.70;72.92
1401;BME280;46518;48.842;8.926;2023-08-24T06:42:32;97223.06;;;21.72;72.51
1401;BME280;46518;48.842;8.926;2023-08-24T06:45:00;97221.97;;;21.82;72.72
1401;BME280;46518;48.842;8.926;2023-08-24T06:47:30;97220.66;;;22.14;71.44
1401;BME280;46518;48.842;8.926;2023-08-24T06:49:58;97218.47;;;22.33;69.97
1401;BME280;46518;48.842;8.926;2023-08-24T06:52:28;97203.16;;;22.43;68.40
1401;BME280;46518;48.842;8.926;2023-08-24T06:54:56;97181.91;;;22.67;67.61
1401;BME280;46518;48.842;8.926;2023-08-24T06:57:25;97154.03;;;22.89;67.37
1401;BME280;46518;48.842;8.926;2023-08-24T06:59:53;97144.19;;;23.02;67.50
1401;BME280;46518;48.842;8.926;2023-08-24T07:02:21;97153.91;;;23.15;68.45
1401;BME280;46518;48.842;8.926;2023-08-24T07:04:50;97159.16;;;23.12;68.19
1401;BME280;46518;48.842;8.926;2023-08-24T07:07:18;97147.59;;;23.11;67.17
1401;BME280;46518;48.842;8.926;2023-08-24T07:09:48;97138.34;;;23.30;67.02
1401;BME280;46518;48.842;8.926;2023-08-24T07:12:16;97139.84;;;23.39;66.96
1401;BME280;46518;48.842;8.926;2023-08-24T07:14:45;97148.94;;;23.47;67.55
1401;BME280;46518;48.842;8.926;2023-08-24T07:17:13;97152.53;;;23.51;68.48
1401;BME280;46518;48.842;8.926;2023-08-24T07:19:41;97153.75;;;23.54;68.21
1401;BME280;46518;48.842;8.926;2023-08-24T07:22:09;97152.78;;;23.58;68.08
1401;BME280;46518;48.842;8.926;2023-08-24T07:24:38;97154.84;;;23.61;68.57
1401;BME280;46518;48.842;8.926;2023-08-24T07:27:11;97144.53;;;23.63;68.09
1401;BME280;46518;48.842;8.926;2023-08-24T07:29:39;97144.00;;;23.70;68.26
1401;BME280;46518;48.842;8.926;2023-08-24T07:32:08;97147.63;;;23.74;67.87
1401;BME280;46518;48.842;8.926;2023-08-24T07:34:36;97145.53;;;23.80;66.79
1401;BME280;46518;48.842;8.926;2023-08-24T07:37:05;97133.31;;;23.82;66.29
1401;BME280;46518;48.842;8.926;2023-08-24T07:39:35;97128.19;;;23.89;65.39
1401;BME280;46518;48.842;8.926;2023-08-24T07:42:04;97133.94;;;24.00;65.08
1401;BME280;46518;48.842;8.926;2023-08-24T07:44:33;97131.81;;;24.06;64.89
1401;BME280;46518;48.842;8.926;2023-08-24T07:47:03;97135.97;;;24.16;64.21
1401;BME280;46518;48.842;8.926;2023-08-24T07:49:31;97146.88;;;24.19;64.56
1401;BME280;46518;48.842;8.926;2023-08-24T07:51:59;97152.50;;;24.26;64.51
1401;BME280;46518;48.842;8.926;2023-08-24T07:54:28;97158.53;;;24.23;62.66
1401;BME280;46518;48.842;8.926;2023-08-24T07:56:56;97157.66;;;24.31;62.44
1401;BME280;46518;48.842;8.926;2023-08-24T07:59:24;97159.25;;;24.45;62.58
1401;BME280;46518;48.842;8.926;2023-08-24T08:01:54;97160.97;;;24.49;62.52
1401;BME280;46518;48.842;8.926;2023-08-24T08:04:22;97161.06;;;24.53;62.40
1401;BME280;46518;48.842;8.926;2023-08-24T08:06:51;97157.81;;;24.60;62.14
1401;BME280;46518;48.842;8.926;2023-08-24T08:09:20;97153.91;;;24.69;62.03
1401;BME280;46518;48.842;8.926;2023-08-24T08:11:48;97152.22;;;24.77;61.42
1401;BME280;46518;48.842;8.926;2023-08-24T08:14:20;97153.22;;;24.85;61.85
1401;BME280;46518;48.842;8.926;2023-08-24T08:16:48;97145.03;;;24.93;61.64
1401;BME280;46518;48.842;8.926;2023-08-24T08:19:18;97141.00;;;25.00;61.67
1401;BME280;46518;48.842;8.926;2023-08-24T08:21:49;97148.50;;;25.06;61.59
1401;BME280;46518;48.842;8.926;2023-08-24T08:24:17;97159.81;;;25.12;60.62
1401;BME280;46518;48.842;8.926;2023-08-24T08:26:52;97152.31;;;25.17;60.44
1401;BME280;46518;48.842;8.926;2023-08-24T08:29:20;97150.06;;;25.20;61.14
1401;BME280;46518;48.842;8.926;2023-08-24T08:31:48;97155.69;;;25.27;60.62
1401;BME280;46518;48.842;8.926;2023-08-24T08:34:18;97153.53;;;25.32;60.20
1401;BME280;46518;48.842;8.926;2023-08-24T08:36:46;97152.06;;;25.35;59.92
1401;BME280;46518;48.842;8.926;2023-08-24T08:39:15;97148.56;;;25.47;60.20
1401;BME280;46518;48.842;8.926;2023-08-24T08:41:45;97155.06;;;25.46;59.79
1401;BME280;46518;48.842;8.926;2023-08-24T08:44:14;97154.56;;;25.56;59.90
1401;BME280;46518;48.842;8.926;2023-08-24T08:46:43;97154.44;;;25.65;59.58
1401;BME280;46518;48.842;8.926;2023-08-24T08:49:13;97150.59;;;25.66;58.71
1401;BME280;46518;48.842;8.926;2023-08-24T08:51:45;97150.38;;;25.71;58.11
1401;BME280;46518;48.842;8.926;2023-08-24T08:54:13;97161.09;;;25.83;57.89
1401;BME280;46518;48.842;8.926;2023-08-24T08:56:41;97155.59;;;25.92;58.10
1401;BME280;46518;48.842;8.926;2023-08-24T08:59:13;97153.75;;;25.96;58.45
1401;BME280;46518;48.842;8.926;2023-08-24T09:01:42;97149.78;;;26.06;57.85
1401;BME280;46518;48.842;8.926;2023-08-24T09:04:14;97141.09;;;26.12;57.12
1401;BME280;46518;48.842;8.926;2023-08-24T09:06:44;97133.19;;;26.19;56.97
1401;BME280;46518;48.842;8.926;2023-08-24T09:09:13;97126.84;;;26.28;56.83
1401;BME280;46518;48.842;8.926;2023-08-24T09:11:43;97124.75;;;26.37;57.32
1401;BME280;46518;48.842;8.926;2023-08-24T09:14:14;97127.28;;;26.45;56.75
1401;BME280;46518;48.842;8.926;2023-08-24T09:16:42;97112.41;;;26.52;56.03
1401;BME280;46518;48.842;8.926;2023-08-24T09:19:12;97111.38;;;26.56;55.18
1401;BME280;46518;48.842;8.926;2023-08-24T09:21:40;97095.53;;;26.55;54.54
1401;BME280;46518;48.842;8.926;2023-08-24T09:24:10;97091.41;;;26.61;54.67
1401;BME280;46518;48.842;8.926;2023-08-24T09:26:40;97090.81;;;26.67;55.32
1401;BME280;46518;48.842;8.926;2023-08-24T09:29:12;97086.97;;;26.68;54.74
1401;BME280;46518;48.842;8.926;2023-08-24T09:31:41;97092.00;;;26.70;54.48
1401;BME280;46518;48.842;8.926;2023-08-24T09:34:11;97095.22;;;26.76;53.95
1401;BME280;46518;48.842;8.926;2023-08-24T09:36:46;97091.19;;;26.85;53.75
1401;BME280;46518;48.842;8.926;2023-08-24T09:39:17;97078.56;;;26.89;53.80
1401;BME280;46518;48.842;8.926;2023-08-24T09:41:48;97077.56;;;26.98;54.05
1401;BME280;46518;48.842;8.926;2023-08-24T09:44:17;97064.66;;;27.07;53.95
1401;BME280;46518;48.842;8.926;2023-08-24T09:46:45;97058.63;;;27.14;53.91
1401;BME280;46518;48.842;8.926;2023-08-24T09:49:14;97051.09;;;27.23;54.11
1401;BME280;46518;48.842;8.926;2023-08-24T09:51:43;97040.44;;;27.30;54.12
1401;BME280;46518;48.842;8.926;2023-08-24T09:54:11;97026.72;;;27.39;53.73
1401;BME280;46518;48.842;8.926;2023-08-24T09:56:41;97033.03;;;27.46;53.31
1401;BME280;46518;48.842;8.926;2023-08-24T09:59:14;97024.63;;;27.51;53.18
1401;BME280;46518;48.842;8.926;2023-08-24T10:01:46;97017.34;;;27.56;53.09
1401;BME280;46518;48.842;8.926;2023-08-24T10:04:19;97001.63;;;27.61;53.20
1401;BME280;46518;48.842;8.926;2023-08-24T10:06:52;97003.75;;;27.71;53.34
1401;BME280;46518;48.842;8.926;2023-08-24T10:09:22;97000.75;;;27.77;53.41
1401;BME280;46518;48.842;8.926;2023-08-24T10:11:58;96991.63;;;27.85;54.31
1401;BME280;46518;48.842;8.926;2023-08-24T10:14:31;96992.91;;;27.91;53.61
1401;BME280;46518;48.842;8.926;2023-08-24T10:17:00;96991.47;;;28.01;54.32
1401;BME280;46518;48.842;8.926;2023-08-24T10:19:30;96985.41;;;28.07;54.15
1401;BME280;46518;48.842;8.926;2023-08-24T10:22:00;96981.66;;;28.15;53.59
1401;BME280;46518;48.842;8.926;2023-08-24T10:24:30;96970.59;;;28.24;53.39
1401;BME280;46518;48.842;8.926;2023-08-24T10:27:02;96977.25;;;28.30;52.98
1401;BME280;46518;48.842;8.926;2023-08-24T10:29:31;96979.69;;;28.39;53.46
1401;BME280;46518;48.842;8.926;2023-08-24T10:32:01;96982.22;;;28.51;53.63
1401;BME280;46518;48.842;8.926;2023-08-24T10:34:30;96972.59;;;28.54;52.34
1401;BME280;46518;48.842;8.926;2023-08-24T10:37:07;96973.09;;;28.63;51.61
1401;BME280;46518;48.842;8.926;2023-08-24T10:39:37;96964.97;;;28.63;50.81
1401;BME280;46518;48.842;8.926;2023-08-24T10:42:10;96961.63;;;28.73;50.74
1401;BME280;46518;48.842;8.926;2023-08-24T10:44:40;96951.66;;;28.81;51.64
1401;BME280;46518;48.842;8.926;2023-08-24T10:47:12;96937.72;;;28.82;49.85
1401;BME280;46518;48.842;8.926;2023-08-24T10:49:41;96943.22;;;28.90;49.77
1401;BME280;46518;48.842;8.926;2023-08-24T10:52:16;96939.41;;;28.94;49.37
1401;BME280;46518;48.842;8.926;2023-08-24T10:54:45;96939.53;;;29.05;50.00
1401;BME280;46518;48.842;8.926;2023-08-24T10:57:21;96928.78;;;29.12;50.62
1401;BME280;46518;48.842;8.926;2023-08-24T11:00:03;96920.25;;;29.10;49.12
1401;BME280;46518;48.842;8.926;2023-08-24T11:02:44;96926.81;;;29.06;48.05
1401;BME280;46518;48.842;8.926;2023-08-24T11:05:18;96923.00;;;29.14;50.08
1401;BME280;46518;48.842;8.926;2023-08-24T11:07:51;96921.06;;;29.11;48.65
1401;BME280;46518;48.842;8.926;2023-08-24T11:10:20;96923.81;;;29.18;48.60
1401;BME280;46518;48.842;8.926;2023-08-24T11:13:07;96916.56;;;29.26;48.16
1401;BME280;46518;48.842;8.926;2023-08-24T11:15:40;96907.69;;;29.32;48.24
1401;BME280;46518;48.842;8.926;2023-08-24T11:18:22;96913.19;;;29.43;49.00
1401;BME280;46518;48.842;8.926;2023-08-24T11:20:54;96907.47;;;29.52;49.77
1401;BME280;46518;48.842;8.926;2023-08-24T11:23:24;96903.59;;;29.53;48.69
1401;BME280;46518;48.842;8.926;2023-08-24T11:25:56;96891.69;;;29.61;47.93
1401;BME280;46518;48.842;8.926;2023-08-24T11:28:27;96888.66;;;29.66;48.29
1401;BME280;46518;48.842;8.926;2023-08-24T11:30:57;96872.78;;;29.72;48.89
1401;BME280;46518;48.842;8.926;2023-08-24T11:33:27;96876.69;;;29.78;48.57
1401;BME280;46518;48.842;8.926;2023-08-24T11:35:56;96881.03;;;29.86;47.85
1401;BME280;46518;48.842;8.926;2023-08-24T11:38:25;96874.47;;;29.91;47.80
1401;BME280;46518;48.842;8.926;2023-08-24T11:41:10;96872.97;;;30.00;47.85
1401;BME280;46518;48.842;8.926;2023-08-24T11:43:41;96873.41;;;30.06;47.58
1401;BME280;46518;48.842;8.926;2023-08-24T11:46:09;96863.72;;;30.08;47.89
1401;BME280;46518;48.842;8.926;2023-08-24T11:48:38;96851.69;;;30.09;47.51
1401;BME280;46518;48.842;8.926;2023-08-24T11:51:08;96857.53;;;30.15;47.33
1401;BME280;46518;48.842;8.926;2023-08-24T11:53:37;96865.34;;;30.24;48.32
1401;BME280;46518;48.842;8.926;2023-08-24T11:56:08;96867.31;;;30.27;48.66
1401;BME280;46518;48.842;8.926;2023-08-24T11:58:37;96868.13;;;30.35;47.09
1401;BME280;46518;48.842;8.926;2023-08-24T12:01:09;96860.78;;;30.42;47.34
1401;BME280;46518;48.842;8.926;2023-08-24T12:03:39;96851.91;;;30.49;46.25
1401;BME280;46518;48.842;8.926;2023-08-24T12:06:11;96849.59;;;30.51;46.05
1401;BME280;46518;48.842;8.926;2023-08-24T12:08:41;96845.72;;;30.63;47.22
1401;BME280;46518;48.842;8.926;2023-08-24T12:11:12;96839.56;;;30.77;48.18
1401;BME280;46518;48.842;8.926;2023-08-24T12:13:45;96835.34;;;30.86;48.75
1401;BME280;46518;48.842;8.926;2023-08-24T12:16:16;96840.78;;;30.97;47.99
1401;BME280;46518;48.842;8.926;2023-08-24T12:18:51;96828.38;;;31.07;47.14
1401;BME280;46518;48.842;8.926;2023-08-24T12:21:20;96820.22;;;31.03;46.21
1401;BME280;46518;48.842;8.926;2023-08-24T12:23:57;96815.19;;;31.16;48.28
1401;BME280;46518;48.842;8.926;2023-08-24T12:26:25;96814.41;;;31.26;48.93
1401;BME280;46518;48.842;8.926;2023-08-24T12:28:55;96801.22;;;31.35;48.28
1401;BME280;46518;48.842;8.926;2023-08-24T12:31:29;96799.28;;;31.47;48.56
1401;BME280;46518;48.842;8.926;2023-08-24T12:34:02;96791.91;;;31.51;48.14
1401;BME280;46518;48.842;8.926;2023-08-24T12:36:32;96780.97;;;31.62;48.56
1401;BME280;46518;48.842;8.926;2023-08-24T12:39:03;96785.66;;;31.57;47.48
1401;BME280;46518;48.842;8.926;2023-08-24T12:41:33;96769.72;;;31.56;48.88
1401;BME280;46518;48.842;8.926;2023-08-24T12:44:01;96771.25;;;31.71;49.30
1401;BME280;46518;48.842;8.926;2023-08-24T12:46:34;96763.03;;;31.82;48.04
1401;BME280;46518;48.842;8.926;2023-08-24T12:49:03;96761.97;;;31.58;47.36
1401;BME280;46518;48.842;8.926;2023-08-24T12:51:31;96753.75;;;31.69;48.49
1401;BME280;46518;48.842;8.926;2023-08-24T12:54:00;96750.63;;;31.77;46.77
1401;BME280;46518;48.842;8.926;2023-08-24T12:56:28;96750.56;;;32.02;47.04
1401;BME280;46518;48.842;8.926;2023-08-24T12:58:56;96745.03;;;32.17;47.25
1401;BME280;46518;48.842;8.926;2023-08-24T13:01:24;96758.97;;;32.30;46.25
1401;BME280;46518;48.842;8.926;2023-08-24T13:03:54;96735.63;;;32.36;46.03
1401;BME280;46518;48.842;8.926;2023-08-24T13:06:22;96735.97;;;32.49;46.61
1401;BME280;46518;48.842;8.926;2023-08-24T13:08:52;96746.41;;;32.57;45.93
1401;BME280;46518;48.842;8.926;2023-08-24T13:11:22;96747.91;;;32.65;44.92
1401;BME280;46518;48.842;8.926;2023-08-24T13:13:50;96743.63;;;32.64;45.12
1401;BME280;46518;48.842;8.926;2023-08-24T13:16:19;96739.78;;;32.58;43.74
1401;BME280;46518;48.842;8.926;2023-08-24T13:18:47;96741.75;;;32.54;42.55
1401;BME280;46518;48.842;8.926;2023-08-24T13:21:17;96721.56;;;32.41;42.48
1401;BME280;46518;48.842;8.926;2023-08-24T13:23:46;96726.13;;;32.65;43.60